Time;durP1;ratioP1;P1;durP2;ratioP2;P2;SDS_P1;SDS_P2;PMS_P1;PMS_P2;Temp;Humidity;BMP_temperature;BMP_pressure;BME280_temperature;BME280_humidity;BME280_pressure;Samples;Min_cycle;Max_cycle;Signal;HPM_P1;HPM_P2
2021/12/27 00:00:26;;;;;;;6.72;3.83;;;;;;;9.14;83.37;101351.95;1942016;74;21478;-60
2021/12/27 00:02:57;;;;;;;13.55;7.58;;;;;;;9.14;83.41;101361.61;1941857;74;21525;-59
2021/12/27 00:05:26;;;;;;;11.85;5.62;;;;;;;9.15;83.45;101355.01;1941979;74;21036;-61
2021/12/27 00:07:55;;;;;;;13.08;6.17;;;;;;;9.17;83.50;101355.83;1941090;73;21516;-62
2021/12/27 00:10:27;;;;;;;11.40;5.45;;;;;;;9.17;83.54;101362.41;1919388;75;21027;-60
2021/12/27 00:12:58;;;;;;;10.40;4.87;;;;;;;9.18;83.60;101357.55;1920778;74;21016;-59
2021/12/27 00:15:27;;;;;;;6.10;3.22;;;;;;;9.20;83.47;101356.20;1919272;73;21146;-60
2021/12/27 00:17:56;;;;;;;11.73;6.00;;;;;;;9.22;83.39;101357.02;1919426;75;21477;-60
2021/12/27 00:20:25;;;;;;;9.78;5.08;;;;;;;9.23;83.40;101363.56;1940657;74;21515;-61
2021/12/27 00:22:54;;;;;;;9.40;5.08;;;;;;;9.25;83.34;101360.45;1942041;73;21514;-60
2021/12/27 00:25:23;;;;;;;10.60;4.85;;;;;;;9.26;83.43;101355.62;1941965;74;21472;-59
2021/12/27 00:27:52;;;;;;;14.33;5.70;;;;;;;9.26;83.42;101366.59;1941308;74;21523;-61
2021/12/27 00:30:22;;;;;;;12.03;4.95;;;;;;;9.26;83.48;101362.19;1918649;74;21133;-61
2021/12/27 00:32:51;;;;;;;13.03;6.33;;;;;;;9.26;83.49;101356.93;1932067;74;21330;-60
2021/12/27 00:35:25;;;;;;;11.43;5.25;;;;;;;9.27;83.53;101353.38;1919612;74;21490;-60
2021/12/27 00:37:51;;;;;;;11.50;5.97;;;;;;;9.33;83.55;101362.03;1919115;74;21153;-60
2021/12/27 00:40:19;;;;;;;15.32;6.95;;;;;;;9.33;83.52;101364.66;1919213;75;21016;-60
2021/12/27 00:42:49;;;;;;;15.03;6.25;;;;;;;9.34;83.50;101369.03;1920841;73;21024;-61
2021/12/27 00:45:20;;;;;;;8.93;5.30;;;;;;;9.34;83.49;101372.97;1919441;73;21028;-60
2021/12/27 00:47:50;;;;;;;14.07;5.90;;;;;;;9.36;83.47;101375.11;1919422;75;21025;-61
2021/12/27 00:50:19;;;;;;;12.70;6.47;;;;;;;9.37;83.38;101375.50;1919450;75;21027;-60
2021/12/27 00:52:49;;;;;;;12.18;6.08;;;;;;;9.37;83.32;101371.56;1919329;73;21004;-62
2021/12/27 00:55:20;;;;;;;7.28;2.60;;;;;;;9.34;83.28;101383.48;1919407;75;21137;-63
2021/12/27 00:57:52;;;;;;;2.42;1.60;;;;;;;9.21;82.78;101382.44;1929024;74;21015;-61
2021/12/27 01:00:22;;;;;;;3.67;2.12;;;;;;;8.90;82.25;101384.89;1941906;73;21108;-61
2021/12/27 01:02:50;;;;;;;4.05;1.92;;;;;;;8.55;81.67;101390.89;1941907;74;21012;-59
2021/12/27 01:05:19;;;;;;;2.75;1.90;;;;;;;8.24;81.51;101394.07;1941960;74;21426;-61
2021/12/27 01:07:48;;;;;;;3.40;1.87;;;;;;;7.90;81.52;101396.00;1935416;74;21496;-60
2021/12/27 01:13:36;;;;;;;3.27;1.70;;;;;;;7.17;82.09;101405.44;1919301;75;21048;-61
2021/12/27 01:18:10;;;;;;;1.98;1.27;;;;;;;6.72;82.62;101409.11;1938139;74;21155;-59
2021/12/27 01:20:39;;;;;;;1.62;1.17;;;;;;;6.60;82.72;101410.55;1941929;74;21039;-59
2021/12/27 01:23:07;;;;;;;3.02;1.00;;;;;;;6.48;82.73;101405.89;1940219;74;21473;-59
2021/12/27 01:25:36;;;;;;;3.12;1.00;;;;;;;6.33;82.74;101416.53;1942011;74;21465;-60
2021/12/27 01:28:06;;;;;;;2.15;1.07;;;;;;;6.21;82.79;101424.49;1941873;74;21083;-61
2021/12/27 01:30:38;;;;;;;1.45;1.20;;;;;;;6.17;83.02;101429.74;1941977;74;21027;-60
2021/12/27 01:33:08;;;;;;;1.70;1.10;;;;;;;6.23;82.87;101426.65;1934220;73;20995;-60
2021/12/27 01:35:37;;;;;;;2.33;1.45;;;;;;;6.09;82.50;101435.50;1928286;73;21125;-61
2021/12/27 01:38:06;;;;;;;2.72;1.40;;;;;;;6.07;82.62;101436.38;1948747;73;21112;-60
2021/12/27 01:40:36;;;;;;;1.45;1.17;;;;;;;6.01;82.57;101438.61;1948955;73;21003;-61
2021/12/27 01:43:28;;;;;;;1.95;1.25;;;;;;;5.99;82.39;101439.06;1948729;73;21007;-60
2021/12/27 01:46:00;;;;;;;3.25;1.37;;;;;;;5.99;82.24;101445.19;1854538;77;21118;-61
2021/12/27 01:48:33;;;;;;;1.20;1.00;;;;;;;5.86;82.33;101455.70;1854560;77;21022;-60
2021/12/27 01:51:03;;;;;;;2.27;1.20;;;;;;;5.84;82.34;101453.09;1854721;77;21185;-62
2021/12/27 01:53:35;;;;;;;1.00;0.80;;;;;;;5.77;82.12;101454.91;1854656;77;21185;-62
2021/12/27 01:56:05;;;;;;;1.15;1.02;;;;;;;5.58;82.11;101463.75;1854655;77;21098;-61
2021/12/27 01:58:35;;;;;;;1.52;0.90;;;;;;;5.50;82.52;101467.73;1870316;76;21061;-62
2021/12/27 02:01:06;;;;;;;1.10;0.90;;;;;;;5.53;82.56;101474.66;1839604;78;21611;-61
2021/12/27 02:03:36;;;;;;;1.00;0.90;;;;;;;5.54;82.59;101476.41;1839508;78;21054;-63
2021/12/27 02:06:06;;;;;;;1.40;1.02;;;;;;;5.52;82.46;101476.42;1839703;78;21191;-62
2021/12/27 02:08:37;;;;;;;1.90;0.90;;;;;;;5.48;82.33;101490.80;1855850;76;21169;-64
2021/12/27 02:11:07;;;;;;;1.40;1.00;;;;;;;5.39;82.07;101489.98;1852890;77;20998;-62
2021/12/27 02:13:46;;;;;;;0.65;0.42;;;;;;;5.34;81.97;101482.61;1851681;77;21472;-61
2021/12/27 02:16:07;;;;;;;1.80;1.00;;;;;;;5.27;82.23;101490.04;1851108;77;21496;-63
2021/12/27 02:18:37;;;;;;;1.12;0.85;;;;;;;5.28;82.09;101501.37;1854627;77;21469;-61
2021/12/27 02:21:07;;;;;;;1.30;0.82;;;;;;;5.32;81.95;101500.03;1854640;77;21029;-61
2021/12/27 02:23:37;;;;;;;1.52;0.60;;;;;;;5.35;81.95;101498.72;1856352;77;21045;-59
2021/12/27 02:26:06;;;;;;;0.65;0.45;;;;;;;5.39;81.76;101499.58;1862274;76;21034;-60
2021/12/27 02:28:35;;;;;;;0.78;0.62;;;;;;;5.35;81.43;101500.03;1871982;76;21042;-62
2021/12/27 02:31:04;;;;;;;0.85;0.60;;;;;;;5.24;81.41;101507.05;1875242;76;21137;-60
2021/12/27 02:33:34;;;;;;;1.27;0.40;;;;;;;5.14;81.71;101521.01;1875068;76;21579;-60
2021/12/27 02:36:05;;;;;;;1.62;0.90;;;;;;;5.13;81.84;101524.51;1850510;76;21009;-61
2021/12/27 02:38:37;;;;;;;1.57;0.80;;;;;;;5.12;81.72;101518.84;1860918;76;21034;-60
2021/12/27 02:41:05;;;;;;;1.42;0.80;;;;;;;5.09;81.82;101518.84;1860853;77;21050;-61
2021/12/27 02:43:35;;;;;;;0.88;0.70;;;;;;;5.09;81.82;101518.84;1876979;76;21465;-60
2021/12/27 02:46:10;;;;;;;0.80;0.80;;;;;;;5.02;81.96;101522.80;1867540;77;21090;-60
2021/12/27 02:48:44;;;;;;;0.72;0.70;;;;;;;5.01;81.92;101521.05;1866360;77;21050;-60
2021/12/27 02:51:13;;;;;;;1.60;0.98;;;;;;;4.98;81.96;101523.69;1866289;76;21042;-58
2021/12/27 02:53:44;;;;;;;1.10;0.80;;;;;;;4.96;81.74;101530.66;1866370;77;21109;-61
2021/12/27 02:56:13;;;;;;;1.30;0.88;;;;;;;4.95;81.59;101534.13;1858007;76;21488;-60
2021/12/27 02:58:41;;;;;;;1.35;0.85;;;;;;;4.90;81.38;101546.75;1858651;76;21523;-60
2021/12/27 03:01:13;;;;;;;1.45;0.90;;;;;;;4.84;81.59;101552.86;1857857;77;21118;-59
2021/12/27 03:03:43;;;;;;;3.10;1.02;;;;;;;4.80;81.83;101554.61;1865555;76;21705;-59
2021/12/27 03:06:12;;;;;;;1.22;0.98;;;;;;;4.79;81.92;101544.17;1866282;77;21524;-61
2021/12/27 03:08:42;;;;;;;1.10;0.88;;;;;;;4.77;81.89;101555.05;1866520;77;21077;-62
2021/12/27 03:11:11;;;;;;;3.37;1.10;;;;;;;4.75;81.85;101556.80;1866534;77;21090;-61
2021/12/27 03:13:43;;;;;;;1.75;1.07;;;;;;;4.69;81.76;101558.13;1862956;77;21038;-62
2021/12/27 03:16:14;;;;;;;1.52;1.00;;;;;;;4.67;81.74;101567.66;1848991;77;21559;-62
2021/12/27 03:18:45;;;;;;;2.35;1.20;;;;;;;4.66;81.67;101564.19;1848885;77;21131;-62
2021/12/27 03:21:14;;;;;;;1.85;1.10;;;;;;;4.60;81.88;101563.77;1850333;77;21058;-59
2021/12/27 03:23:45;;;;;;;2.80;1.77;;;;;;;4.54;82.10;101563.78;1851717;77;21472;-59
2021/12/27 03:26:14;;;;;;;2.22;1.30;;;;;;;4.55;82.26;101566.81;1851620;77;21491;-60
2021/12/27 03:28:44;;;;;;;2.55;1.42;;;;;;;4.64;82.09;101572.45;1851621;77;21492;-60
2021/12/27 03:31:15;;;;;;;2.33;1.50;;;;;;;4.63;82.10;101574.66;1851670;77;21441;-62
2021/12/27 03:33:43;;;;;;;2.95;1.47;;;;;;;4.64;81.95;101570.71;1851725;77;21034;-61
2021/12/27 03:36:12;;;;;;;1.95;1.10;;;;;;;4.58;82.02;101572.03;1851631;77;21593;-60
2021/12/27 03:38:44;;;;;;;1.70;1.10;;;;;;;4.54;82.00;101582.04;1851639;77;21101;-59
2021/12/27 03:41:18;;;;;;;2.12;1.30;;;;;;;4.47;81.92;101592.04;1851613;77;21147;-60
2021/12/27 03:43:48;;;;;;;1.60;1.25;;;;;;;4.53;81.96;101605.06;1851526;77;21069;-61
2021/12/27 03:46:17;;;;;;;1.60;1.02;;;;;;;4.61;81.67;101598.12;1911074;70;21267;-62
2021/12/27 03:48:46;;;;;;;2.15;1.17;;;;;;;4.53;81.42;101602.45;1952835;73;21093;-62
2021/12/27 03:51:15;;;;;;;1.57;1.20;;;;;;;4.52;81.48;101601.15;1954617;73;21052;-64
2021/12/27 03:53:44;;;;;;;2.45;1.67;;;;;;;4.51;81.48;101600.73;1950069;73;21074;-65
2021/12/27 03:56:13;;;;;;;2.08;1.30;;;;;;;4.50;81.36;101599.87;1951636;73;21528;-67
2021/12/27 04:01:21;;;;;;;2.47;1.40;;;;;;;4.34;81.73;101604.65;1922770;73;21054;-68
2021/12/27 04:03:52;;;;;;;2.30;1.40;;;;;;;4.42;81.55;101610.72;1953191;73;21116;-66
2021/12/27 04:06:23;;;;;;;3.47;1.77;;;;;;;4.45;81.39;101618.55;1923154;73;21446;-66
2021/12/27 04:08:52;;;;;;;1.82;1.25;;;;;;;4.36;81.51;101617.25;1941443;73;21054;-64
2021/12/27 04:11:21;;;;;;;2.55;1.60;;;;;;;4.32;81.54;101614.21;1951646;73;21036;-61
2021/12/27 04:13:50;;;;;;;2.33;1.42;;;;;;;4.23;81.77;101617.66;1945728;73;21102;-63
2021/12/27 04:16:19;;;;;;;2.47;1.20;;;;;;;4.25;81.81;101619.84;1929872;73;21016;-61
2021/12/27 04:18:49;;;;;;;2.17;1.35;;;;;;;4.11;81.69;101625.02;1953293;73;21094;-60
2021/12/27 04:21:18;;;;;;;2.85;1.55;;;;;;;4.09;81.96;101624.14;1953039;73;21486;-61
2021/12/27 04:23:46;;;;;;;3.58;1.70;;;;;;;4.14;81.85;101632.85;1927184;73;21575;-61
2021/12/27 04:26:15;;;;;;;3.27;1.70;;;;;;;4.09;81.89;101637.18;1951337;73;21026;-63
2021/12/27 04:28:44;;;;;;;1.45;1.00;;;;;;;4.00;82.10;101633.25;1930666;73;21074;-62
2021/12/27 04:31:14;;;;;;;2.72;1.37;;;;;;;4.00;82.04;101644.98;1952769;73;21019;-60
2021/12/27 04:33:43;;;;;;;2.15;1.30;;;;;;;3.92;81.90;101649.31;1952723;73;21109;-64
2021/12/27 04:36:12;;;;;;;2.20;1.20;;;;;;;3.92;81.86;101657.13;1952471;73;21441;-61
2021/12/27 04:38:46;;;;;;;2.17;1.30;;;;;;;3.92;81.81;101664.94;1952668;73;21022;-64
2021/12/27 04:41:14;;;;;;;2.70;1.32;;;;;;;3.85;81.88;101664.94;1950543;73;21132;-63
2021/12/27 04:43:43;;;;;;;2.65;1.50;;;;;;;3.80;81.96;101661.44;1953103;73;21054;-62
2021/12/27 04:46:12;;;;;;;1.55;1.17;;;;;;;3.78;81.85;101670.09;1953107;73;21511;-63
2021/12/27 04:48:40;;;;;;;2.10;0.85;;;;;;;3.72;81.85;101667.03;1958903;73;21554;-61
2021/12/27 04:51:09;;;;;;;2.70;1.47;;;;;;;3.68;81.89;101670.49;1959810;73;20987;-61
2021/12/27 04:53:38;;;;;;;2.67;1.60;;;;;;;3.65;81.92;101669.16;1959827;73;21089;-62
2021/12/27 04:56:06;;;;;;;4.62;1.98;;;;;;;3.62;81.77;101674.38;1959897;73;21002;-61
2021/12/27 04:58:35;;;;;;;3.12;1.75;;;;;;;3.60;81.63;101675.67;1959892;73;21026;-61
2021/12/27 05:01:07;;;;;;;3.42;1.47;;;;;;;3.62;81.48;101686.11;1959830;73;21101;-61
2021/12/27 05:03:36;;;;;;;1.75;1.10;;;;;;;3.60;81.33;101687.83;1959855;73;21104;-62
2021/12/27 05:06:05;;;;;;;3.02;1.47;;;;;;;3.57;81.27;101689.11;1959874;73;21057;-65
2021/12/27 05:08:33;;;;;;;4.28;1.80;;;;;;;3.52;81.22;101702.53;1959837;73;21031;-62
2021/12/27 05:11:07;;;;;;;2.95;1.55;;;;;;;3.41;81.44;101708.56;1959698;73;21019;-61
2021/12/27 05:13:33;;;;;;;2.47;1.60;;;;;;;3.44;81.44;101704.66;1958431;73;21611;-63
2021/12/27 05:16:03;;;;;;;2.50;1.50;;;;;;;3.46;81.43;101710.73;1959720;73;21124;-62
2021/12/27 05:18:32;;;;;;;2.87;1.60;;;;;;;3.46;81.50;101701.63;1959909;73;21465;-64
2021/12/27 05:21:01;;;;;;;17.07;13.83;;;;;;;3.51;81.40;101713.39;1959683;73;21092;-65
2021/12/27 05:23:34;;;;;;;3.77;2.05;;;;;;;3.55;81.28;101720.34;1958928;73;20983;-64
2021/12/27 05:26:00;;;;;;;3.40;1.90;;;;;;;3.57;81.05;101717.75;1958949;73;21077;-66
2021/12/27 05:28:30;;;;;;;3.52;1.70;;;;;;;3.56;80.90;101726.41;1959783;73;21465;-64
2021/12/27 05:30:58;;;;;;;3.02;1.77;;;;;;;3.49;80.96;101730.73;1959781;73;21039;-61
2021/12/27 05:33:27;;;;;;;2.42;1.67;;;;;;;3.43;81.28;101722.46;1959866;73;21054;-64
2021/12/27 05:35:56;;;;;;;2.62;1.55;;;;;;;3.46;81.39;101728.97;1959687;73;20995;-62
2021/12/27 05:38:25;;;;;;;2.98;1.70;;;;;;;3.43;81.34;101721.16;1959650;73;21003;-64
2021/12/27 05:40:54;;;;;;;2.83;1.47;;;;;;;3.40;81.33;101728.94;1950092;73;21023;-63
2021/12/27 05:43:23;;;;;;;2.72;1.47;;;;;;;3.38;81.27;101731.11;1911784;75;21071;-65
2021/12/27 05:45:52;;;;;;;2.20;1.20;;;;;;;3.37;81.13;101739.32;1911761;75;21501;-65
2021/12/27 05:48:21;;;;;;;3.20;1.70;;;;;;;3.41;80.94;101742.82;1934288;73;21128;-64
2021/12/27 05:50:50;;;;;;;3.63;1.80;;;;;;;3.40;80.81;101754.97;1959902;73;21026;-63
2021/12/27 05:53:20;;;;;;;2.85;1.95;;;;;;;3.45;80.76;101749.38;1959880;73;21002;-61
2021/12/27 05:55:50;;;;;;;3.35;1.72;;;;;;;3.44;80.79;101754.12;1959892;73;21115;-65
2021/12/27 05:58:19;;;;;;;4.05;2.05;;;;;;;3.37;81.02;101748.87;1958439;73;21019;-63
2021/12/27 06:00:48;;;;;;;3.42;2.02;;;;;;;3.34;81.17;101751.03;1948696;73;20987;-63
2021/12/27 06:03:17;;;;;;;3.37;2.00;;;;;;;3.36;81.04;101766.23;1959691;73;21495;-63
2021/12/27 06:05:46;;;;;;;3.65;2.15;;;;;;;3.32;81.06;101759.27;1959728;73;21069;-62
2021/12/27 06:08:15;;;;;;;3.25;1.70;;;;;;;3.31;81.21;101763.16;1959557;73;21023;-63
2021/12/27 06:10:44;;;;;;;2.85;1.50;;;;;;;3.25;81.34;101767.89;1959864;73;21062;-63
2021/12/27 06:13:14;;;;;;;2.72;1.62;;;;;;;3.30;81.32;101766.17;1958597;73;21449;-65
2021/12/27 06:15:43;;;;;;;3.87;1.90;;;;;;;3.36;81.14;101772.74;1959341;73;21481;-62
2021/12/27 06:18:12;;;;;;;3.42;1.95;;;;;;;3.43;81.06;101777.14;1959465;73;21082;-63
2021/12/27 06:20:41;;;;;;;3.67;1.45;;;;;;;3.48;80.82;101781.92;1959700;73;21485;-64
2021/12/27 06:23:09;;;;;;;8.03;2.62;;;;;;;3.51;80.61;101776.32;1959757;73;21034;-62
2021/12/27 06:25:38;;;;;;;2.90;1.60;;;;;;;3.51;80.45;101771.11;1959797;73;21006;-63
2021/12/27 06:28:07;;;;;;;4.28;2.20;;;;;;;3.48;80.42;101778.02;1959717;73;21480;-63
2021/12/27 06:30:36;;;;;;;4.45;2.05;;;;;;;3.45;80.49;101777.16;1957810;73;21450;-63
2021/12/27 06:33:06;;;;;;;4.45;2.45;;;;;;;3.37;80.85;101766.66;1959759;73;21157;-62
2021/12/27 06:35:35;;;;;;;4.53;2.10;;;;;;;3.39;81.02;101776.65;1959746;73;21047;-62
2021/12/27 06:38:04;;;;;;;3.45;1.70;;;;;;;3.37;80.96;101762.75;1959345;73;21031;-63
2021/12/27 06:40:33;;;;;;;4.92;2.60;;;;;;;3.33;81.05;101771.41;1959752;73;21097;-63
2021/12/27 06:43:02;;;;;;;5.47;2.72;;;;;;;3.34;81.20;101786.19;1959714;73;21450;-64
2021/12/27 06:45:31;;;;;;;6.83;3.58;;;;;;;3.37;81.13;101774.47;1959650;73;21000;-62
2021/12/27 06:48:00;;;;;;;5.55;2.92;;;;;;;3.36;80.96;101775.78;1958655;73;21015;-62
2021/12/27 06:50:29;;;;;;;3.37;2.08;;;;;;;3.37;80.79;101775.77;1915322;75;21594;-61
2021/12/27 06:52:58;;;;;;;4.25;2.45;;;;;;;3.38;80.60;101776.22;1915263;75;21527;-61
2021/12/27 06:55:27;;;;;;;4.22;2.15;;;;;;;3.36;80.53;101787.50;1915207;75;21171;-62
2021/12/27 06:57:55;;;;;;;6.33;2.62;;;;;;;3.34;80.51;101779.67;1915317;75;21610;-61
2021/12/27 07:00:24;;;;;;;3.15;1.90;;;;;;;3.32;80.49;101798.32;1915435;75;21564;-62
2021/12/27 07:02:53;;;;;;;9.15;3.10;;;;;;;3.30;80.58;101788.30;1915256;75;21519;-63
2021/12/27 07:05:22;;;;;;;9.73;3.50;;;;;;;3.30;80.44;101779.19;1915539;75;21539;-61
2021/12/27 07:07:51;;;;;;;4.75;2.40;;;;;;;3.28;80.34;101774.00;1915252;75;21489;-62
2021/12/27 07:10:22;;;;;;;6.35;2.80;;;;;;;3.28;80.19;101770.50;1915272;75;21033;-61
2021/12/27 07:12:51;;;;;;;6.12;2.72;;;;;;;3.27;80.26;101773.53;1915288;75;21027;-61
2021/12/27 07:15:20;;;;;;;5.87;3.10;;;;;;;3.30;80.43;101771.38;1915355;75;21461;-61
2021/12/27 07:17:48;;;;;;;7.15;3.52;;;;;;;3.33;80.50;101771.41;1915411;74;21055;-62
2021/12/27 07:20:17;;;;;;;6.25;3.22;;;;;;;3.34;80.66;101789.19;1915289;75;21089;-61
2021/12/27 07:22:46;;;;;;;3.85;2.17;;;;;;;3.35;80.52;101777.50;1915257;75;21627;-61
2021/12/27 07:25:15;;;;;;;5.72;2.80;;;;;;;3.37;80.37;101774.47;1915254;75;21011;-61
2021/12/27 07:27:44;;;;;;;5.20;2.95;;;;;;;3.43;80.32;101778.84;1915280;75;21132;-61
2021/12/27 07:30:13;;;;;;;3.58;2.10;;;;;;;3.43;80.23;101781.05;1915302;75;21464;-61
2021/12/27 07:32:42;;;;;;;4.05;1.90;;;;;;;3.43;80.13;101778.84;1915342;75;21165;-60
2021/12/27 07:35:11;;;;;;;6.47;2.27;;;;;;;3.44;80.06;101783.20;1915226;75;21059;-61
2021/12/27 07:37:41;;;;;;;3.35;1.80;;;;;;;3.35;80.24;101785.30;1915413;75;21027;-61
2021/12/27 07:40:12;;;;;;;5.30;2.05;;;;;;;3.33;80.31;101772.70;1915296;75;21027;-61
2021/12/27 07:42:41;;;;;;;4.10;2.20;;;;;;;3.33;80.29;101775.31;1915302;75;21027;-62
2021/12/27 07:45:11;;;;;;;3.58;2.02;;;;;;;3.34;80.30;101774.47;1915263;75;21501;-61
2021/12/27 07:47:39;;;;;;;3.35;1.85;;;;;;;3.35;80.21;101787.05;1915289;75;21093;-61
2021/12/27 07:50:09;;;;;;;9.85;4.03;;;;;;;3.36;80.13;101780.55;1939171;73;21055;-61
2021/12/27 07:52:38;;;;;;;5.10;2.35;;;;;;;3.35;80.12;101776.19;1953215;73;21069;-61
2021/12/27 07:55:07;;;;;;;4.80;2.87;;;;;;;3.38;80.20;101773.63;1953352;73;21039;-61
2021/12/27 07:57:36;;;;;;;3.90;1.98;;;;;;;3.39;80.14;101771.44;1953250;73;21022;-61
2021/12/27 08:00:07;;;;;;;3.50;2.02;;;;;;;3.36;80.17;101765.37;1951588;73;21032;-62
2021/12/27 08:02:38;;;;;;;3.58;2.25;;;;;;;3.34;80.19;101762.75;1951547;73;21086;-59
2021/12/27 08:05:07;;;;;;;4.95;3.00;;;;;;;3.34;80.22;101757.55;1953121;73;21137;-61
2021/12/27 08:07:36;;;;;;;2.50;1.67;;;;;;;3.35;80.31;101763.17;1953337;73;21070;-60
2021/12/27 08:10:07;;;;;;;4.78;1.75;;;;;;;3.36;80.36;101761.03;1953352;73;21027;-61
2021/12/27 08:12:36;;;;;;;2.00;1.10;;;;;;;3.37;80.38;101762.75;1953010;73;21081;-64
2021/12/27 08:15:06;;;;;;;2.60;1.40;;;;;;;3.37;80.53;101757.98;1953311;73;21468;-61
2021/12/27 08:17:36;;;;;;;2.17;1.32;;;;;;;3.37;80.59;101749.73;1953416;73;21008;-61
2021/12/27 08:20:06;;;;;;;1.87;1.20;;;;;;;3.40;80.88;101755.41;1953435;73;21414;-61
2021/12/27 08:22:35;;;;;;;2.55;1.10;;;;;;;3.47;80.91;101746.34;1953165;73;21086;-59
2021/12/27 08:25:07;;;;;;;3.35;1.65;;;;;;;3.57;80.80;101747.70;1953111;73;21441;-60
2021/12/27 08:27:38;;;;;;;2.05;1.07;;;;;;;3.61;80.67;101748.16;1953429;73;21007;-59
2021/12/27 08:30:08;;;;;;;1.40;1.20;;;;;;;3.66;80.44;101749.06;1953092;73;21128;-59
2021/12/27 08:32:39;;;;;;;1.22;1.05;;;;;;;3.70;80.38;101752.12;1953300;73;21062;-60
2021/12/27 08:35:09;;;;;;;2.85;1.10;;;;;;;3.76;80.21;101745.66;1953199;73;21011;-58
2021/12/27 08:37:39;;;;;;;1.90;1.00;;;;;;;3.79;80.09;101733.92;1953195;73;21011;-59
2021/12/27 08:40:09;;;;;;;4.65;2.22;;;;;;;3.78;80.00;101738.72;1953006;73;21014;-59
2021/12/27 08:42:38;;;;;;;3.62;1.50;;;;;;;3.80;79.97;101735.69;1953274;73;21003;-59
2021/12/27 08:45:08;;;;;;;1.95;1.50;;;;;;;3.82;79.98;101737.86;1953292;73;21078;-59
2021/12/27 08:47:37;;;;;;;1.80;1.10;;;;;;;3.85;79.95;101743.09;1953360;73;20987;-60
2021/12/27 08:50:08;;;;;;;2.60;1.50;;;;;;;3.85;79.97;101743.09;1952507;73;21078;-62
2021/12/27 08:52:36;;;;;;;3.08;1.42;;;;;;;3.89;79.92;101733.97;1950041;73;21055;-60
2021/12/27 08:55:06;;;;;;;2.80;1.10;;;;;;;3.89;79.85;101736.14;1957909;73;21120;-60
2021/12/27 08:57:35;;;;;;;1.25;0.90;;;;;;;3.88;79.81;101727.03;1958915;73;21027;-63
2021/12/27 09:00:07;;;;;;;0.82;0.70;;;;;;;3.86;79.78;101729.63;1958796;73;21516;-62
2021/12/27 09:02:35;;;;;;;1.67;0.93;;;;;;;3.87;79.71;101732.66;1958736;73;21030;-63
2021/12/27 09:05:05;;;;;;;1.60;1.00;;;;;;;3.90;79.76;101726.61;1955864;73;21511;-62
2021/12/27 09:07:34;;;;;;;1.57;0.95;;;;;;;3.94;79.73;101734.42;1950154;73;21008;-61
2021/12/27 09:10:03;;;;;;;1.00;0.90;;;;;;;3.95;79.79;101730.97;1949787;73;21065;-61
2021/12/27 09:12:32;;;;;;;1.12;0.70;;;;;;;3.97;79.77;101740.11;1948267;73;21027;-59
2021/12/27 09:15:01;;;;;;;0.90;0.60;;;;;;;3.94;79.79;101730.95;1945942;73;20995;-62
2021/12/27 09:17:32;;;;;;;1.05;0.80;;;;;;;3.95;79.84;101731.41;1956442;73;21115;-61
2021/12/27 09:20:02;;;;;;;1.90;1.00;;;;;;;3.94;79.83;101732.27;1956448;73;21546;-61
2021/12/27 09:22:30;;;;;;;2.58;0.80;;;;;;;3.92;79.78;101730.09;1956579;73;21507;-62
2021/12/27 09:24:59;;;;;;;3.17;0.78;;;;;;;3.90;79.76;101725.30;1956599;73;21042;-63
2021/12/27 09:27:28;;;;;;;2.52;1.00;;;;;;;3.91;79.77;101730.53;1949575;73;21003;-63
2021/12/27 09:29:56;;;;;;;1.55;1.10;;;;;;;3.92;79.70;101730.09;1949819;73;21054;-62
2021/12/27 09:32:25;;;;;;;3.15;1.30;;;;;;;3.92;79.66;101729.64;1949904;73;21075;-62
2021/12/27 09:34:54;;;;;;;1.42;1.10;;;;;;;3.90;79.60;101730.52;1949876;73;21453;-63
2021/12/27 09:37:23;;;;;;;2.72;1.20;;;;;;;3.90;79.61;101734.42;1954580;73;21100;-62
2021/12/27 09:39:57;;;;;;;2.75;1.50;;;;;;;3.90;79.59;101730.52;1956559;73;21115;-64
2021/12/27 09:42:27;;;;;;;2.62;1.65;;;;;;;3.90;79.58;101724.00;1955362;73;21132;-65
2021/12/27 09:44:57;;;;;;;3.05;1.00;;;;;;;3.91;79.55;101712.29;1956542;73;21019;-63
2021/12/27 09:47:26;;;;;;;3.33;1.70;;;;;;;3.90;79.50;101705.77;1956501;73;21088;-63
2021/12/27 09:49:55;;;;;;;2.72;1.47;;;;;;;3.90;79.50;101703.16;1956492;73;21015;-62
2021/12/27 09:52:23;;;;;;;2.37;1.40;;;;;;;3.89;79.53;101697.49;1956300;73;21124;-63
2021/12/27 09:54:52;;;;;;;2.50;1.20;;;;;;;3.89;79.50;101701.40;1956255;73;21036;-61
2021/12/27 09:57:20;;;;;;;2.83;1.40;;;;;;;3.86;79.54;101704.87;1956919;73;21038;-61
2021/12/27 09:59:49;;;;;;;3.55;1.72;;;;;;;3.86;79.54;101708.34;1935750;73;21043;-61
2021/12/27 10:02:18;;;;;;;4.40;2.05;;;;;;;3.86;79.57;101703.13;1937596;73;21028;-61
2021/12/27 10:04:47;;;;;;;2.12;1.40;;;;;;;3.85;79.69;101704.02;1956666;73;21569;-62
2021/12/27 10:07:23;;;;;;;3.90;1.75;;;;;;;3.87;79.68;101706.60;1956478;73;21040;-65
2021/12/27 10:10:00;;;;;;;5.17;3.70;;;;;;;3.87;79.69;101710.51;1956482;73;21090;-64
2021/12/27 10:12:30;;;;;;;9.13;4.00;;;;;;;3.90;79.68;101707.06;1956547;73;21036;-64
2021/12/27 10:15:05;;;;;;;4.30;2.33;;;;;;;3.82;79.91;101707.90;1956454;73;21430;-69
2021/12/27 10:17:44;;;;;;;6.65;3.22;;;;;;;3.82;80.21;101707.90;1956080;73;21089;-68
2021/12/27 10:20:37;;;;;;;11.43;4.40;;;;;;;3.81;80.30;101711.36;1956393;73;21112;-67
2021/12/27 10:23:05;;;;;;;9.23;4.90;;;;;;;3.86;80.33;101712.25;1956308;72;21023;-66
2021/12/27 10:25:37;;;;;;;8.55;4.87;;;;;;;3.91;80.34;101704.87;1956593;73;21148;-67
2021/12/27 10:28:06;;;;;;;3.52;1.65;;;;;;;3.94;80.25;101704.46;1945173;73;21399;-65
2021/12/27 10:30:37;;;;;;;3.15;1.47;;;;;;;3.99;80.13;101704.50;1932616;74;21556;-67
2021/12/27 10:33:28;;;;;;;3.12;1.60;;;;;;;3.97;80.02;101695.80;1947067;73;21023;-66
2021/12/27 10:35:59;;;;;;;3.75;1.50;;;;;;;3.92;79.96;101693.61;1955538;72;21132;-61
2021/12/27 10:38:36;;;;;;;2.58;1.80;;;;;;;3.88;79.93;101686.65;1956537;73;21030;-65
2021/12/27 10:41:13;;;;;;;1.70;1.10;;;;;;;3.80;80.06;101690.09;1956763;73;21023;-62
2021/12/27 10:43:46;;;;;;;4.85;2.60;;;;;;;3.71;80.18;101688.75;1955794;73;21140;-62
2021/12/27 10:46:21;;;;;;;2.75;1.62;;;;;;;3.65;80.33;101689.59;1956501;73;21092;-62
2021/12/27 10:48:59;;;;;;;3.30;1.95;;;;;;;3.64;80.35;101686.98;1956634;73;21108;-65
2021/12/27 10:51:30;;;;;;;5.50;1.60;;;;;;;3.63;80.34;101684.81;1957424;73;21069;-65
2021/12/27 10:54:01;;;;;;;3.30;1.90;;;;;;;3.62;80.32;101687.41;1959702;73;21055;-65
2021/12/27 10:56:47;;;;;;;4.03;1.52;;;;;;;3.64;80.26;101683.07;1914338;73;21022;-67
2021/12/27 10:59:21;;;;;;;3.72;1.60;;;;;;;3.66;80.20;101680.03;1929679;74;21077;-68
2021/12/27 11:01:51;;;;;;;3.33;2.12;;;;;;;3.65;80.29;101676.98;1947726;74;21441;-69
2021/12/27 11:04:21;;;;;;;4.60;2.10;;;;;;;3.66;80.36;101674.83;1929479;74;21418;-69
2021/12/27 11:06:53;;;;;;;4.15;2.15;;;;;;;3.68;80.39;101679.61;1925772;74;21090;-68
2021/12/27 11:09:21;;;;;;;4.72;1.80;;;;;;;3.73;80.29;101682.25;1925759;74;21015;-69
2021/12/27 11:11:51;;;;;;;3.62;2.37;;;;;;;3.73;80.20;101685.72;1944683;73;21082;-69
2021/12/27 11:14:19;;;;;;;2.90;1.60;;;;;;;3.74;80.18;101677.02;1959865;73;20991;-61
2021/12/27 11:16:48;;;;;;;2.33;1.45;;;;;;;3.77;80.11;101678.34;1959835;73;21105;-62
2021/12/27 11:19:22;;;;;;;1.92;1.20;;;;;;;3.77;80.05;101680.95;1959768;73;21065;-67
2021/12/27 11:21:50;;;;;;;;;;;;;;;3.77;80.01;101679.65;1962797;73;21530;-66
2021/12/27 11:24:22;;;;;;;1.67;1.25;;;;;;;3.80;79.97;101685.29;1959555;73;20381;-67
2021/12/27 11:26:57;;;;;;;3.55;1.55;;;;;;;3.74;79.96;101681.37;1959556;73;21038;-65
2021/12/27 11:29:25;;;;;;;3.40;1.65;;;;;;;3.70;80.07;101679.18;1959190;73;21480;-65
2021/12/27 11:32:15;;;;;;;4.67;2.40;;;;;;;3.67;80.30;101677.85;1960049;73;21538;-65
2021/12/27 11:35:03;;;;;;;3.45;1.85;;;;;;;3.65;80.37;101678.28;1959735;73;21111;-64
2021/12/27 11:37:40;;;;;;;4.55;2.72;;;;;;;3.67;80.36;101677.85;1959796;73;21565;-65
2021/12/27 11:40:11;;;;;;;4.35;2.12;;;;;;;3.69;80.28;101673.55;1959941;73;21100;-64
2021/12/27 11:43:01;;;;;;;6.62;2.58;;;;;;;3.71;80.22;101666.61;1958759;73;21545;-65
2021/12/27 11:45:44;;;;;;;4.47;2.40;;;;;;;3.74;80.21;101676.16;1959675;73;21023;-67
2021/12/27 11:48:19;;;;;;;4.15;2.20;;;;;;;3.70;80.29;101676.58;1958115;73;21002;-66
2021/12/27 11:51:08;;;;;;;5.40;3.00;;;;;;;3.68;80.30;101676.56;1959954;73;21504;-63
2021/12/27 11:53:52;;;;;;;6.42;3.33;;;;;;;3.66;80.33;101676.99;1950314;73;21041;-62
2021/12/27 11:56:40;;;;;;;6.20;2.47;;;;;;;3.66;80.41;101678.73;1924976;74;21480;-61